sensor_id;sensor_type;location;lat;lon;timestamp;P1;durP1;ratioP1;P2;durP2;ratioP2
26038;SDS011;13815;52.374;4.882;2023-05-09T00:00:30;7.13;;;3.67;;
26038;SDS011;13815;52.374;4.882;2023-05-09T00:02:55;3.10;;;3.00;;
26038;SDS011;13815;52.374;4.882;2023-05-09T00:05:21;2.80;;;2.80;;
26038;SDS011;13815;52.374;4.882;2023-05-09T00:07:46;9.68;;;3.45;;
26038;SDS011;13815;52.374;4.882;2023-05-09T00:10:12;2.58;;;2.58;;
26038;SDS011;13815;52.374;4.882;2023-05-09T00:12:38;2.40;;;2.40;;
26038;SDS011;13815;52.374;4.882;2023-05-09T00:15:03;9.80;;;3.13;;
26038;SDS011;13815;52.374;4.882;2023-05-09T00:17:32;1.90;;;1.90;;
26038;SDS011;13815;52.374;4.882;2023-05-09T00:19:57;1.90;;;1.90;;
26038;SDS011;13815;52.374;4.882;2023-05-09T00:22:25;5.57;;;2.95;;
26038;SDS011;13815;52.374;4.882;2023-05-09T00:24:51;2.00;;;2.00;;
26038;SDS011;13815;52.374;4.882;2023-05-09T00:27:16;1.90;;;1.90;;
26038;SDS011;13815;52.374;4.882;2023-05-09T00:29:42;2.10;;;1.70;;
26038;SDS011;13815;52.374;4.882;2023-05-09T00:32:07;1.30;;;1.30;;
26038;SDS011;13815;52.374;4.882;2023-05-09T00:34:33;1.52;;;1.52;;
26038;SDS011;13815;52.374;4.882;2023-05-09T00:36:58;1.13;;;1.13;;
26038;SDS011;13815;52.374;4.882;2023-05-09T00:39:24;1.25;;;1.25;;
26038;SDS011;13815;52.374;4.882;2023-05-09T00:41:49;3.38;;;1.15;;
26038;SDS011;13815;52.374;4.882;2023-05-09T00:44:15;0.80;;;0.80;;
26038;SDS011;13815;52.374;4.882;2023-05-09T00:46:40;5.70;;;1.15;;
26038;SDS011;13815;52.374;4.882;2023-05-09T00:49:06;4.15;;;1.20;;
26038;SDS011;13815;52.374;4.882;2023-05-09T00:51:32;0.70;;;0.70;;
26038;SDS011;13815;52.374;4.882;2023-05-09T00:53:57;1.45;;;1.45;;
26038;SDS011;13815;52.374;4.882;2023-05-09T00:56:23;0.70;;;0.70;;
26038;SDS011;13815;52.374;4.882;2023-05-09T00:58:48;4.10;;;1.13;;
26038;SDS011;13815;52.374;4.882;2023-05-09T01:01:13;0.77;;;0.77;;
26038;SDS011;13815;52.374;4.882;2023-05-09T01:03:39;0.38;;;0.38;;
26038;SDS011;13815;52.374;4.882;2023-05-09T01:11:32;0.75;;;0.70;;
26038;SDS011;13815;52.374;4.882;2023-05-09T01:16:55;0.70;;;0.70;;
26038;SDS011;13815;52.374;4.882;2023-05-09T01:19:46;0.70;;;0.70;;
26038;SDS011;13815;52.374;4.882;2023-05-09T01:22:32;0.77;;;0.77;;
26038;SDS011;13815;52.374;4.882;2023-05-09T01:30:55;5.25;;;1.48;;
26038;SDS011;13815;52.374;4.882;2023-05-09T01:33:23;0.82;;;0.82;;
26038;SDS011;13815;52.374;4.882;2023-05-09T01:35:56;0.80;;;0.80;;
26038;SDS011;13815;52.374;4.882;2023-05-09T01:38:22;4.20;;;0.77;;
26038;SDS011;13815;52.374;4.882;2023-05-09T01:40:50;0.60;;;0.60;;
26038;SDS011;13815;52.374;4.882;2023-05-09T01:43:17;1.58;;;1.58;;
26038;SDS011;13815;52.374;4.882;2023-05-09T01:45:43;0.60;;;0.60;;
26038;SDS011;13815;52.374;4.882;2023-05-09T01:48:09;0.90;;;0.90;;
26038;SDS011;13815;52.374;4.882;2023-05-09T01:50:35;3.80;;;1.30;;
26038;SDS011;13815;52.374;4.882;2023-05-09T01:53:01;0.40;;;0.40;;
26038;SDS011;13815;52.374;4.882;2023-05-09T01:55:28;0.70;;;0.70;;
26038;SDS011;13815;52.374;4.882;2023-05-09T01:57:56;1.08;;;1.05;;
26038;SDS011;13815;52.374;4.882;2023-05-09T02:00:22;0.80;;;0.80;;
26038;SDS011;13815;52.374;4.882;2023-05-09T02:02:48;0.95;;;0.95;;
26038;SDS011;13815;52.374;4.882;2023-05-09T02:05:14;0.60;;;0.60;;
26038;SDS011;13815;52.374;4.882;2023-05-09T02:07:40;0.47;;;0.47;;
26038;SDS011;13815;52.374;4.882;2023-05-09T02:10:06;3.97;;;0.73;;
26038;SDS011;13815;52.374;4.882;2023-05-09T02:12:33;0.28;;;0.28;;
26038;SDS011;13815;52.374;4.882;2023-05-09T02:14:58;0.30;;;0.30;;
26038;SDS011;13815;52.374;4.882;2023-05-09T02:17:24;0.30;;;0.30;;
26038;SDS011;13815;52.374;4.882;2023-05-09T02:19:49;0.38;;;0.38;;
26038;SDS011;13815;52.374;4.882;2023-05-09T02:22:14;0.50;;;0.50;;
26038;SDS011;13815;52.374;4.882;2023-05-09T02:24:41;0.40;;;0.40;;
26038;SDS011;13815;52.374;4.882;2023-05-09T02:27:07;3.30;;;0.47;;
26038;SDS011;13815;52.374;4.882;2023-05-09T02:29:33;8.77;;;1.05;;
26038;SDS011;13815;52.374;4.882;2023-05-09T02:32:10;0.30;;;0.30;;
26038;SDS011;13815;52.374;4.882;2023-05-09T02:34:38;0.40;;;0.40;;
26038;SDS011;13815;52.374;4.882;2023-05-09T02:37:05;0.20;;;0.20;;
26038;SDS011;13815;52.374;4.882;2023-05-09T02:39:31;0.10;;;0.10;;
26038;SDS011;13815;52.374;4.882;2023-05-09T02:42:00;0.10;;;0.10;;
26038;SDS011;13815;52.374;4.882;2023-05-09T02:44:29;0.08;;;0.08;;
26038;SDS011;13815;52.374;4.882;2023-05-09T02:46:54;3.40;;;0.35;;
26038;SDS011;13815;52.374;4.882;2023-05-09T02:49:20;0.15;;;0.15;;
26038;SDS011;13815;52.374;4.882;2023-05-09T02:51:45;0.30;;;0.30;;
26038;SDS011;13815;52.374;4.882;2023-05-09T02:54:10;1.20;;;0.60;;
26038;SDS011;13815;52.374;4.882;2023-05-09T02:56:36;0.17;;;0.17;;
26038;SDS011;13815;52.374;4.882;2023-05-09T02:59:01;0.30;;;0.30;;
26038;SDS011;13815;52.374;4.882;2023-05-09T03:01:26;3.72;;;0.60;;
26038;SDS011;13815;52.374;4.882;2023-05-09T03:03:52;0.20;;;0.20;;
26038;SDS011;13815;52.374;4.882;2023-05-09T03:06:17;0.28;;;0.28;;
26038;SDS011;13815;52.374;4.882;2023-05-09T03:08:42;0.40;;;0.40;;
26038;SDS011;13815;52.374;4.882;2023-05-09T03:11:10;0.20;;;0.20;;
26038;SDS011;13815;52.374;4.882;2023-05-09T03:13:36;6.55;;;0.85;;
26038;SDS011;13815;52.374;4.882;2023-05-09T03:16:01;4.13;;;0.70;;
26038;SDS011;13815;52.374;4.882;2023-05-09T03:18:26;0.30;;;0.30;;
26038;SDS011;13815;52.374;4.882;2023-05-09T03:20:51;4.45;;;0.70;;
26038;SDS011;13815;52.374;4.882;2023-05-09T03:23:17;0.43;;;0.43;;
26038;SDS011;13815;52.374;4.882;2023-05-09T03:25:45;0.32;;;0.32;;
26038;SDS011;13815;52.374;4.882;2023-05-09T03:28:10;0.40;;;0.40;;
26038;SDS011;13815;52.374;4.882;2023-05-09T03:30:38;0.60;;;0.60;;
26038;SDS011;13815;52.374;4.882;2023-05-09T03:33:03;5.50;;;0.68;;
26038;SDS011;13815;52.374;4.882;2023-05-09T03:35:30;0.30;;;0.30;;
26038;SDS011;13815;52.374;4.882;2023-05-09T03:37:55;0.45;;;0.45;;
26038;SDS011;13815;52.374;4.882;2023-05-09T03:40:20;0.30;;;0.30;;
26038;SDS011;13815;52.374;4.882;2023-05-09T03:42:46;0.57;;;0.57;;
26038;SDS011;13815;52.374;4.882;2023-05-09T03:45:11;0.43;;;0.43;;
26038;SDS011;13815;52.374;4.882;2023-05-09T03:47:37;0.63;;;0.63;;
26038;SDS011;13815;52.374;4.882;2023-05-09T03:50:02;0.30;;;0.30;;
26038;SDS011;13815;52.374;4.882;2023-05-09T03:52:28;3.42;;;1.05;;
26038;SDS011;13815;52.374;4.882;2023-05-09T03:54:53;0.20;;;0.20;;
26038;SDS011;13815;52.374;4.882;2023-05-09T03:57:18;0.55;;;0.55;;
26038;SDS011;13815;52.374;4.882;2023-05-09T03:59:44;0.30;;;0.30;;
26038;SDS011;13815;52.374;4.882;2023-05-09T04:02:09;3.83;;;0.98;;
26038;SDS011;13815;52.374;4.882;2023-05-09T04:04:35;0.30;;;0.30;;
26038;SDS011;13815;52.374;4.882;2023-05-09T04:07:00;4.75;;;0.80;;
26038;SDS011;13815;52.374;4.882;2023-05-09T04:09:26;0.50;;;0.50;;
26038;SDS011;13815;52.374;4.882;2023-05-09T04:11:52;0.38;;;0.38;;
26038;SDS011;13815;52.374;4.882;2023-05-09T04:14:17;1.13;;;0.45;;
26038;SDS011;13815;52.374;4.882;2023-05-09T04:16:42;0.75;;;0.75;;
26038;SDS011;13815;52.374;4.882;2023-05-09T04:19:08;4.30;;;0.85;;
26038;SDS011;13815;52.374;4.882;2023-05-09T04:21:33;4.40;;;0.88;;
26038;SDS011;13815;52.374;4.882;2023-05-09T04:23:59;0.35;;;0.35;;
26038;SDS011;13815;52.374;4.882;2023-05-09T04:26:24;0.63;;;0.63;;
26038;SDS011;13815;52.374;4.882;2023-05-09T04:28:50;0.50;;;0.50;;
26038;SDS011;13815;52.374;4.882;2023-05-09T04:31:16;0.70;;;0.70;;
26038;SDS011;13815;52.374;4.882;2023-05-09T04:33:43;1.08;;;1.08;;
26038;SDS011;13815;52.374;4.882;2023-05-09T04:36:08;0.70;;;0.70;;
26038;SDS011;13815;52.374;4.882;2023-05-09T04:38:33;0.50;;;0.50;;
26038;SDS011;13815;52.374;4.882;2023-05-09T04:40:59;3.97;;;0.75;;
26038;SDS011;13815;52.374;4.882;2023-05-09T04:43:25;0.32;;;0.32;;
26038;SDS011;13815;52.374;4.882;2023-05-09T04:45:51;3.22;;;0.38;;
26038;SDS011;13815;52.374;4.882;2023-05-09T04:48:17;0.20;;;0.20;;
26038;SDS011;13815;52.374;4.882;2023-05-09T04:50:42;0.20;;;0.20;;
26038;SDS011;13815;52.374;4.882;2023-05-09T04:53:08;7.13;;;0.80;;
26038;SDS011;13815;52.374;4.882;2023-05-09T04:55:33;0.10;;;0.10;;
26038;SDS011;13815;52.374;4.882;2023-05-09T04:57:59;0.00;;;0.00;;
26038;SDS011;13815;52.374;4.882;2023-05-09T05:00:24;0.00;;;0.00;;
26038;SDS011;13815;52.374;4.882;2023-05-09T05:02:50;0.00;;;0.00;;
26038;SDS011;13815;52.374;4.882;2023-05-09T05:05:15;0.00;;;0.00;;
26038;SDS011;13815;52.374;4.882;2023-05-09T05:07:40;3.03;;;0.40;;
26038;SDS011;13815;52.374;4.882;2023-05-09T05:10:06;0.00;;;0.00;;
26038;SDS011;13815;52.374;4.882;2023-05-09T05:12:32;3.30;;;0.28;;
26038;SDS011;13815;52.374;4.882;2023-05-09T05:14:57;0.00;;;0.00;;
26038;SDS011;13815;52.374;4.882;2023-05-09T05:17:22;0.00;;;0.00;;
26038;SDS011;13815;52.374;4.882;2023-05-09T05:19:48;3.10;;;0.20;;
26038;SDS011;13815;52.374;4.882;2023-05-09T05:22:14;3.75;;;0.38;;
26038;SDS011;13815;52.374;4.882;2023-05-09T05:24:39;0.00;;;0.00;;
26038;SDS011;13815;52.374;4.882;2023-05-09T05:27:04;3.40;;;0.32;;
26038;SDS011;13815;52.374;4.882;2023-05-09T05:29:30;0.00;;;0.00;;
26038;SDS011;13815;52.374;4.882;2023-05-09T05:31:55;0.00;;;0.00;;
26038;SDS011;13815;52.374;4.882;2023-05-09T05:34:20;3.63;;;0.35;;
26038;SDS011;13815;52.374;4.882;2023-05-09T05:36:46;0.00;;;0.00;;
26038;SDS011;13815;52.374;4.882;2023-05-09T05:39:12;0.00;;;0.00;;
26038;SDS011;13815;52.374;4.882;2023-05-09T05:41:37;0.00;;;0.00;;
26038;SDS011;13815;52.374;4.882;2023-05-09T05:44:03;0.00;;;0.00;;
26038;SDS011;13815;52.374;4.882;2023-05-09T05:46:28;0.00;;;0.00;;
26038;SDS011;13815;52.374;4.882;2023-05-09T05:48:54;0.00;;;0.00;;
26038;SDS011;13815;52.374;4.882;2023-05-09T05:51:20;0.00;;;0.00;;
26038;SDS011;13815;52.374;4.882;2023-05-09T05:53:45;0.00;;;0.00;;
26038;SDS011;13815;52.374;4.882;2023-05-09T05:56:11;0.00;;;0.00;;
26038;SDS011;13815;52.374;4.882;2023-05-09T05:58:36;0.00;;;0.00;;
26038;SDS011;13815;52.374;4.882;2023-05-09T06:01:02;0.00;;;0.00;;
26038;SDS011;13815;52.374;4.882;2023-05-09T06:03:27;0.10;;;0.10;;
26038;SDS011;13815;52.374;4.882;2023-05-09T06:05:53;0.00;;;0.00;;
26038;SDS011;13815;52.374;4.882;2023-05-09T06:08:18;0.05;;;0.05;;
26038;SDS011;13815;52.374;4.882;2023-05-09T06:10:43;0.08;;;0.08;;
26038;SDS011;13815;52.374;4.882;2023-05-09T06:13:09;0.00;;;0.00;;
26038;SDS011;13815;52.374;4.882;2023-05-09T06:15:34;0.00;;;0.00;;
26038;SDS011;13815;52.374;4.882;2023-05-09T06:17:59;0.00;;;0.00;;
26038;SDS011;13815;52.374;4.882;2023-05-09T06:20:25;1.45;;;0.10;;
26038;SDS011;13815;52.374;4.882;2023-05-09T06:22:51;0.00;;;0.00;;
26038;SDS011;13815;52.374;4.882;2023-05-09T06:25:16;0.00;;;0.00;;
26038;SDS011;13815;52.374;4.882;2023-05-09T06:27:41;3.63;;;0.40;;
26038;SDS011;13815;52.374;4.882;2023-05-09T06:30:07;3.83;;;0.40;;
26038;SDS011;13815;52.374;4.882;2023-05-09T06:32:32;0.00;;;0.00;;
26038;SDS011;13815;52.374;4.882;2023-05-09T06:35:04;1.75;;;0.17;;
26038;SDS011;13815;52.374;4.882;2023-05-09T06:37:33;0.00;;;0.00;;
26038;SDS011;13815;52.374;4.882;2023-05-09T06:39:58;1.77;;;0.20;;
26038;SDS011;13815;52.374;4.882;2023-05-09T06:42:23;4.05;;;0.40;;
26038;SDS011;13815;52.374;4.882;2023-05-09T06:44:49;0.10;;;0.10;;
26038;SDS011;13815;52.374;4.882;2023-05-09T06:47:14;3.83;;;0.50;;
26038;SDS011;13815;52.374;4.882;2023-05-09T06:49:40;0.10;;;0.10;;
26038;SDS011;13815;52.374;4.882;2023-05-09T06:52:05;0.10;;;0.10;;
26038;SDS011;13815;52.374;4.882;2023-05-09T06:54:30;3.20;;;0.40;;
26038;SDS011;13815;52.374;4.882;2023-05-09T06:56:56;0.13;;;0.13;;
26038;SDS011;13815;52.374;4.882;2023-05-09T06:59:21;0.15;;;0.15;;
26038;SDS011;13815;52.374;4.882;2023-05-09T07:01:46;3.30;;;0.30;;
26038;SDS011;13815;52.374;4.882;2023-05-09T07:04:12;0.20;;;0.20;;
26038;SDS011;13815;52.374;4.882;2023-05-09T07:06:37;0.28;;;0.28;;
26038;SDS011;13815;52.374;4.882;2023-05-09T07:09:02;7.03;;;1.45;;
26038;SDS011;13815;52.374;4.882;2023-05-09T07:11:32;0.35;;;0.35;;
26038;SDS011;13815;52.374;4.882;2023-05-09T07:13:59;7.53;;;0.70;;
26038;SDS011;13815;52.374;4.882;2023-05-09T07:16:24;0.00;;;0.00;;
26038;SDS011;13815;52.374;4.882;2023-05-09T07:18:49;0.10;;;0.10;;
26038;SDS011;13815;52.374;4.882;2023-05-09T07:21:15;0.40;;;0.40;;
26038;SDS011;13815;52.374;4.882;2023-05-09T07:23:40;0.10;;;0.10;;
26038;SDS011;13815;52.374;4.882;2023-05-09T07:26:05;2.00;;;0.55;;
26038;SDS011;13815;52.374;4.882;2023-05-09T07:28:31;0.30;;;0.30;;
26038;SDS011;13815;52.374;4.882;2023-05-09T07:30:56;0.20;;;0.20;;
26038;SDS011;13815;52.374;4.882;2023-05-09T07:33:22;3.72;;;0.60;;
26038;SDS011;13815;52.374;4.882;2023-05-09T07:35:47;0.20;;;0.20;;
26038;SDS011;13815;52.374;4.882;2023-05-09T07:38:13;0.30;;;0.30;;
26038;SDS011;13815;52.374;4.882;2023-05-09T07:40:38;0.10;;;0.10;;
26038;SDS011;13815;52.374;4.882;2023-05-09T07:43:04;0.28;;;0.28;;
26038;SDS011;13815;52.374;4.882;2023-05-09T07:45:30;0.40;;;0.40;;
26038;SDS011;13815;52.374;4.882;2023-05-09T07:47:55;4.10;;;0.73;;
26038;SDS011;13815;52.374;4.882;2023-05-09T07:50:21;0.17;;;0.17;;
26038;SDS011;13815;52.374;4.882;2023-05-09T07:52:47;0.10;;;0.10;;
26038;SDS011;13815;52.374;4.882;2023-05-09T07:55:12;0.30;;;0.30;;
26038;SDS011;13815;52.374;4.882;2023-05-09T07:57:38;0.10;;;0.10;;
26038;SDS011;13815;52.374;4.882;2023-05-09T08:00:04;4.13;;;0.40;;
26038;SDS011;13815;52.374;4.882;2023-05-09T08:02:30;0.10;;;0.10;;
26038;SDS011;13815;52.374;4.882;2023-05-09T08:04:56;0.10;;;0.10;;
26038;SDS011;13815;52.374;4.882;2023-05-09T08:07:21;7.78;;;0.65;;
26038;SDS011;13815;52.374;4.882;2023-05-09T08:09:46;0.00;;;0.00;;
26038;SDS011;13815;52.374;4.882;2023-05-09T08:12:12;0.00;;;0.00;;
26038;SDS011;13815;52.374;4.882;2023-05-09T08:14:37;4.18;;;0.38;;
26038;SDS011;13815;52.374;4.882;2023-05-09T08:17:02;0.00;;;0.00;;
26038;SDS011;13815;52.374;4.882;2023-05-09T08:19:28;0.00;;;0.00;;
26038;SDS011;13815;52.374;4.882;2023-05-09T08:21:53;0.00;;;0.00;;
26038;SDS011;13815;52.374;4.882;2023-05-09T08:24:19;0.00;;;0.00;;
26038;SDS011;13815;52.374;4.882;2023-05-09T08:26:45;0.00;;;0.00;;
26038;SDS011;13815;52.374;4.882;2023-05-09T08:29:10;0.00;;;0.00;;
26038;SDS011;13815;52.374;4.882;2023-05-09T08:31:36;0.00;;;0.00;;
26038;SDS011;13815;52.374;4.882;2023-05-09T08:34:01;0.00;;;0.00;;
26038;SDS011;13815;52.374;4.882;2023-05-09T08:36:26;0.00;;;0.00;;
26038;SDS011;13815;52.374;4.882;2023-05-09T08:38:52;0.00;;;0.00;;
26038;SDS011;13815;52.374;4.882;2023-05-09T08:41:17;0.10;;;0.10;;
26038;SDS011;13815;52.374;4.882;2023-05-09T08:43:46;0.00;;;0.00;;
26038;SDS011;13815;52.374;4.882;2023-05-09T08:46:12;0.00;;;0.00;;
26038;SDS011;13815;52.374;4.882;2023-05-09T08:48:38;3.85;;;0.30;;
26038;SDS011;13815;52.374;4.882;2023-05-09T08:51:04;0.00;;;0.00;;
26038;SDS011;13815;52.374;4.882;2023-05-09T08:53:30;3.85;;;0.40;;
26038;SDS011;13815;52.374;4.882;2023-05-09T08:55:57;0.10;;;0.10;;
26038;SDS011;13815;52.374;4.882;2023-05-09T08:58:23;0.00;;;0.00;;
26038;SDS011;13815;52.374;4.882;2023-05-09T09:00:48;0.00;;;0.00;;
26038;SDS011;13815;52.374;4.882;2023-05-09T09:03:16;0.00;;;0.00;;
26038;SDS011;13815;52.374;4.882;2023-05-09T09:05:42;0.00;;;0.00;;
26038;SDS011;13815;52.374;4.882;2023-05-09T09:08:08;0.00;;;0.00;;
26038;SDS011;13815;52.374;4.882;2023-05-09T09:10:34;0.00;;;0.00;;
26038;SDS011;13815;52.374;4.882;2023-05-09T09:13:04;0.00;;;0.00;;
26038;SDS011;13815;52.374;4.882;2023-05-09T09:15:33;3.92;;;0.32;;
26038;SDS011;13815;52.374;4.882;2023-05-09T09:18:04;7.78;;;0.63;;
26038;SDS011;13815;52.374;4.882;2023-05-09T09:20:31;3.03;;;0.43;;
26038;SDS011;13815;52.374;4.882;2023-05-09T09:22:59;0.00;;;0.00;;
26038;SDS011;13815;52.374;4.882;2023-05-09T09:25:28;0.10;;;0.10;;
26038;SDS011;13815;52.374;4.882;2023-05-09T09:27:54;0.00;;;0.00;;
26038;SDS011;13815;52.374;4.882;2023-05-09T09:30:19;0.00;;;0.00;;
26038;SDS011;13815;52.374;4.882;2023-05-09T09:32:47;0.00;;;0.00;;
26038;SDS011;13815;52.374;4.882;2023-05-09T09:35:13;0.00;;;0.00;;
26038;SDS011;13815;52.374;4.882;2023-05-09T09:37:38;0.10;;;0.10;;
26038;SDS011;13815;52.374;4.882;2023-05-09T09:40:06;5.82;;;0.73;;
26038;SDS011;13815;52.374;4.882;2023-05-09T09:45:09;1.95;;;0.35;;
26038;SDS011;13815;52.374;4.882;2023-05-09T09:47:36;0.10;;;0.10;;
26038;SDS011;13815;52.374;4.882;2023-05-09T09:50:35;6.40;;;0.75;;
26038;SDS011;13815;52.374;4.882;2023-05-09T09:52:54;0.00;;;0.00;;
26038;SDS011;13815;52.374;4.882;2023-05-09T09:55:21;0.00;;;0.00;;
26038;SDS011;13815;52.374;4.882;2023-05-09T09:57:47;0.10;;;0.10;;
26038;SDS011;13815;52.374;4.882;2023-05-09T10:00:13;0.00;;;0.00;;
26038;SDS011;13815;52.374;4.882;2023-05-09T10:02:52;3.63;;;0.32;;
26038;SDS011;13815;52.374;4.882;2023-05-09T10:05:19;0.10;;;0.10;;
26038;SDS011;13815;52.374;4.882;2023-05-09T10:07:48;0.00;;;0.00;;
26038;SDS011;13815;52.374;4.882;2023-05-09T10:10:35;5.57;;;0.63;;
26038;SDS011;13815;52.374;4.882;2023-05-09T10:13:02;0.22;;;0.20;;
26038;SDS011;13815;52.374;4.882;2023-05-09T10:15:30;0.10;;;0.10;;
26038;SDS011;13815;52.374;4.882;2023-05-09T10:17:57;1.90;;;0.38;;
26038;SDS011;13815;52.374;4.882;2023-05-09T10:20:23;0.00;;;0.00;;
26038;SDS011;13815;52.374;4.882;2023-05-09T10:22:49;0.00;;;0.00;;
26038;SDS011;13815;52.374;4.882;2023-05-09T10:25:18;0.10;;;0.10;;
26038;SDS011;13815;52.374;4.882;2023-05-09T10:27:45;0.10;;;0.10;;
26038;SDS011;13815;52.374;4.882;2023-05-09T10:30:18;7.28;;;0.73;;
26038;SDS011;13815;52.374;4.882;2023-05-09T10:35:30;0.82;;;0.08;;
26038;SDS011;13815;52.374;4.882;2023-05-09T10:37:57;0.10;;;0.10;;
26038;SDS011;13815;52.374;4.882;2023-05-09T10:40:24;0.20;;;0.20;;
26038;SDS011;13815;52.374;4.882;2023-05-09T10:42:50;0.30;;;0.10;;
26038;SDS011;13815;52.374;4.882;2023-05-09T10:45:15;0.10;;;0.10;;
26038;SDS011;13815;52.374;4.882;2023-05-09T10:47:41;3.20;;;0.40;;
26038;SDS011;13815;52.374;4.882;2023-05-09T10:50:08;0.13;;;0.13;;
26038;SDS011;13815;52.374;4.882;2023-05-09T10:53:03;2.50;;;0.52;;
26038;SDS011;13815;52.374;4.882;2023-05-09T10:58:24;0.30;;;0.30;;
26038;SDS011;13815;52.374;4.882;2023-05-09T11:01:04;0.40;;;0.40;;
26038;SDS011;13815;52.374;4.882;2023-05-09T11:11:57;0.10;;;0.10;;
26038;SDS011;13815;52.374;4.882;2023-05-09T11:14:28;0.30;;;0.30;;
26038;SDS011;13815;52.374;4.882;2023-05-09T11:17:04;2.95;;;0.50;;
26038;SDS011;13815;52.374;4.882;2023-05-09T11:22:12;0.30;;;0.30;;
26038;SDS011;13815;52.374;4.882;2023-05-09T11:24:44;0.10;;;0.10;;
26038;SDS011;13815;52.374;4.882;2023-05-09T11:27:20;0.28;;;0.28;;
26038;SDS011;13815;52.374;4.882;2023-05-09T11:29:49;0.20;;;0.20;;
26038;SDS011;13815;52.374;4.882;2023-05-09T11:32:16;3.40;;;0.60;;
26038;SDS011;13815;52.374;4.882;2023-05-09T11:34:42;0.20;;;0.20;;
26038;SDS011;13815;52.374;4.882;2023-05-09T11:37:09;0.10;;;0.10;;
26038;SDS011;13815;52.374;4.882;2023-05-09T11:39:35;0.10;;;0.10;;
26038;SDS011;13815;52.374;4.882;2023-05-09T11:42:20;4.13;;;0.52;;
26038;SDS011;13815;52.374;4.882;2023-05-09T11:44:47;0.10;;;0.10;;
26038;SDS011;13815;52.374;4.882;2023-05-09T11:47:12;0.08;;;0.08;;
26038;SDS011;13815;52.374;4.882;2023-05-09T11:49:41;3.33;;;0.45;;
26038;SDS011;13815;52.374;4.882;2023-05-09T11:52:07;0.00;;;0.00;;
26038;SDS011;13815;52.374;4.882;2023-05-09T11:54:33;0.03;;;0.03;;
26038;SDS011;13815;52.374;4.882;2023-05-09T11:57:02;0.10;;;0.10;;
26038;SDS011;13815;52.374;4.882;2023-05-09T11:59:27;0.30;;;0.30;;
26038;SDS011;13815;52.374;4.882;2023-05-09T12:01:53;3.42;;;0.93;;
26038;SDS011;13815;52.374;4.882;2023-05-09T12:04:18;0.25;;;0.25;;
26038;SDS011;13815;52.374;4.882;2023-05-09T12:06:47;0.20;;;0.20;;
26038;SDS011;13815;52.374;4.882;2023-05-09T12:09:15;0.52;;;0.52;;
26038;SDS011;13815;52.374;4.882;2023-05-09T12:11:47;2.83;;;0.40;;
26038;SDS011;13815;52.374;4.882;2023-05-09T12:14:24;0.20;;;0.20;;
26038;SDS011;13815;52.374;4.882;2023-05-09T12:16:58;0.50;;;0.50;;
26038;SDS011;13815;52.374;4.882;2023-05-09T12:19:24;4.22;;;0.90;;
26038;SDS011;13815;52.374;4.882;2023-05-09T12:21:54;0.50;;;0.50;;
26038;SDS011;13815;52.374;4.882;2023-05-09T12:24:27;2.58;;;0.98;;
26038;SDS011;13815;52.374;4.882;2023-05-09T12:26:57;0.50;;;0.50;;
26038;SDS011;13815;52.374;4.882;2023-05-09T12:29:23;2.88;;;0.60;;
26038;SDS011;13815;52.374;4.882;2023-05-09T12:31:49;3.20;;;2.65;;
26038;SDS011;13815;52.374;4.882;2023-05-09T12:34:16;0.57;;;0.57;;
26038;SDS011;13815;52.374;4.882;2023-05-09T12:36:45;0.00;;;0.00;;
26038;SDS011;13815;52.374;4.882;2023-05-09T12:39:17;0.00;;;0.00;;
26038;SDS011;13815;52.374;4.882;2023-05-09T12:41:46;0.00;;;0.00;;
26038;SDS011;13815;52.374;4.882;2023-05-09T12:44:22;0.00;;;0.00;;
26038;SDS011;13815;52.374;4.882;2023-05-09T12:47:00;0.00;;;0.00;;
26038;SDS011;13815;52.374;4.882;2023-05-09T12:49:26;0.00;;;0.00;;
26038;SDS011;13815;52.374;4.882;2023-05-09T12:51:56;2.53;;;0.22;;
26038;SDS011;13815;52.374;4.882;2023-05-09T12:54:23;0.00;;;0.00;;
26038;SDS011;13815;52.374;4.882;2023-05-09T12:56:50;0.00;;;0.00;;
26038;SDS011;13815;52.374;4.882;2023-05-09T12:59:20;0.00;;;0.00;;
26038;SDS011;13815;52.374;4.882;2023-05-09T13:01:50;0.00;;;0.00;;
26038;SDS011;13815;52.374;4.882;2023-05-09T13:04:18;0.00;;;0.00;;
26038;SDS011;13815;52.374;4.882;2023-05-09T13:06:50;0.00;;;0.00;;
26038;SDS011;13815;52.374;4.882;2023-05-09T13:09:20;0.00;;;0.00;;
26038;SDS011;13815;52.374;4.882;2023-05-09T13:11:47;0.00;;;0.00;;
26038;SDS011;13815;52.374;4.882;2023-05-09T13:14:14;0.00;;;0.00;;
26038;SDS011;13815;52.374;4.882;2023-05-09T13:16:39;0.00;;;0.00;;
26038;SDS011;13815;52.374;4.882;2023-05-09T13:19:05;0.00;;;0.00;;
26038;SDS011;13815;52.374;4.882;2023-05-09T13:21:31;3.13;;;0.22;;
26038;SDS011;13815;52.374;4.882;2023-05-09T13:23:57;3.40;;;0.20;;
26038;SDS011;13815;52.374;4.882;2023-05-09T13:26:22;0.00;;;0.00;;
26038;SDS011;13815;52.374;4.882;2023-05-09T13:28:48;3.42;;;0.20;;
26038;SDS011;13815;52.374;4.882;2023-05-09T13:31:13;3.08;;;0.38;;
26038;SDS011;13815;52.374;4.882;2023-05-09T13:33:38;0.00;;;0.00;;
26038;SDS011;13815;52.374;4.882;2023-05-09T13:36:04;0.00;;;0.00;;
26038;SDS011;13815;52.374;4.882;2023-05-09T13:38:30;3.03;;;0.20;;
26038;SDS011;13815;52.374;4.882;2023-05-09T13:40:56;0.00;;;0.00;;
26038;SDS011;13815;52.374;4.882;2023-05-09T13:43:21;3.22;;;0.20;;
26038;SDS011;13815;52.374;4.882;2023-05-09T13:45:47;0.00;;;0.00;;
26038;SDS011;13815;52.374;4.882;2023-05-09T13:48:12;2.75;;;0.20;;
26038;SDS011;13815;52.374;4.882;2023-05-09T13:50:37;3.15;;;0.20;;
26038;SDS011;13815;52.374;4.882;2023-05-09T13:53:03;0.15;;;0.00;;
26038;SDS011;13815;52.374;4.882;2023-05-09T13:55:28;0.00;;;0.00;;
26038;SDS011;13815;52.374;4.882;2023-05-09T13:57:54;0.00;;;0.00;;
26038;SDS011;13815;52.374;4.882;2023-05-09T14:00:20;0.00;;;0.00;;
26038;SDS011;13815;52.374;4.882;2023-05-09T14:02:49;0.00;;;0.00;;
26038;SDS011;13815;52.374;4.882;2023-05-09T14:05:15;3.03;;;0.20;;
26038;SDS011;13815;52.374;4.882;2023-05-09T14:07:40;1.67;;;0.15;;
26038;SDS011;13815;52.374;4.882;2023-05-09T14:10:06;1.95;;;0.22;;
26038;SDS011;13815;52.374;4.882;2023-05-09T14:12:32;0.00;;;0.00;;
26038;SDS011;13815;52.374;4.882;2023-05-09T14:14:57;2.60;;;0.22;;
26038;SDS011;13815;52.374;4.882;2023-05-09T14:17:23;6.03;;;0.43;;
26038;SDS011;13815;52.374;4.882;2023-05-09T14:19:48;3.53;;;0.22;;
26038;SDS011;13815;52.374;4.882;2023-05-09T14:22:13;0.00;;;0.00;;
26038;SDS011;13815;52.374;4.882;2023-05-09T14:24:40;0.00;;;0.00;;
26038;SDS011;13815;52.374;4.882;2023-05-09T14:27:05;0.00;;;0.00;;
26038;SDS011;13815;52.374;4.882;2023-05-09T14:29:30;0.00;;;0.00;;
26038;SDS011;13815;52.374;4.882;2023-05-09T14:31:56;0.00;;;0.00;;
26038;SDS011;13815;52.374;4.882;2023-05-09T14:34:22;3.35;;;0.25;;
26038;SDS011;13815;52.374;4.882;2023-05-09T14:36:50;3.45;;;0.20;;
26038;SDS011;13815;52.374;4.882;2023-05-09T14:39:16;0.00;;;0.00;;
26038;SDS011;13815;52.374;4.882;2023-05-09T14:41:41;0.10;;;0.00;;
26038;SDS011;13815;52.374;4.882;2023-05-09T14:44:07;0.00;;;0.00;;
26038;SDS011;13815;52.374;4.882;2023-05-09T14:46:32;3.20;;;0.20;;
26038;SDS011;13815;52.374;4.882;2023-05-09T14:48:57;0.00;;;0.00;;
26038;SDS011;13815;52.374;4.882;2023-05-09T14:51:28;1.27;;;0.10;;
26038;SDS011;13815;52.374;4.882;2023-05-09T14:53:54;0.00;;;0.00;;
26038;SDS011;13815;52.374;4.882;2023-05-09T14:56:19;0.00;;;0.00;;
26038;SDS011;13815;52.374;4.882;2023-05-09T14:58:45;0.00;;;0.00;;
26038;SDS011;13815;52.374;4.882;2023-05-09T15:01:11;0.00;;;0.00;;
26038;SDS011;13815;52.374;4.882;2023-05-09T15:03:37;5.22;;;0.47;;
26038;SDS011;13815;52.374;4.882;2023-05-09T15:06:03;0.00;;;0.00;;
26038;SDS011;13815;52.374;4.882;2023-05-09T15:08:29;0.00;;;0.00;;
26038;SDS011;13815;52.374;4.882;2023-05-09T15:10:54;0.00;;;0.00;;
26038;SDS011;13815;52.374;4.882;2023-05-09T15:13:21;0.00;;;0.00;;
26038;SDS011;13815;52.374;4.882;2023-05-09T15:15:46;0.00;;;0.00;;
26038;SDS011;13815;52.374;4.882;2023-05-09T15:18:12;0.00;;;0.00;;